Accueil
METAR-TAF:

METAR-TAF

Aéroports :

Aéroport de Brač

Brač, Croatie

latitude: 43-17-09N, longitude: 016-40-47E, altitude: 541 m

Observation

Le bulletin a été fait il y a 6 heures et 31 minutes, à 14:00 UTC
Vent 15 kt de nord-est
Température 6°C
Humidité 56%
Pression 1015 hPa
Visibilité 10 km ou plus
Nuages épars à une hauteur de 6500 ft

METAR: LDSB 311400Z 04015KT 9999 SCT065 06/M02 Q1015

Heure: 22:31 (20:31 UTC)

Prévision

Le bulletin a été fait il y a 9 heures et 6 minutes, à 11:25 UTC
Prévision valable du 31 à 12 UTC au 01 à 12 UTC
Vent 16 kt de nord/nord-est
Visibilité 10 km ou plus
Quelques nuages à une hauteur de 4000 ft
Probabilité 40% :
Temporairement
du 31 à 17 UTC au 01 à 10 UTC
Vent 20 kt de nord/nord-est avec des rafales jusqu'à 30 kt

TAF: LDSB 311125Z 3112/0112 03016KT 9999 FEW040 TX10/0111Z TN02/0105Z PROB40 TEMPO 3117/0110 03020G30KT

Observations et prévisions météorologiques de plus de 4000 aéroports (messages METAR et TAF).

Les stations disponibles sont représentées par des disques jaunes et rouges sur la carte.

Passer la souris dessus pour voir le nom de la station.

Cliquer dessus pour voir les observations et prévisions météorologiques.

Pour changer de carte: cliquez sur les boutons verts avec une croix noire pour zoomer, sur le bouton vert avec un tiret pour effectuer un zoom arrière, ou sur les flèches vertes pour les cartes adjacentes.


METAR-TAF: